sensor_id;sensor_type;location;lat;lon;timestamp;temperature;humidity
44775;DHT22;31340;51.402;0.016;2023-09-19T00:00:48;15.70;94.80
44775;DHT22;31340;51.402;0.016;2023-09-19T00:03:16;15.70;94.90
44775;DHT22;31340;51.402;0.016;2023-09-19T00:05:44;15.70;95.00
44775;DHT22;31340;51.402;0.016;2023-09-19T00:08:13;15.70;95.00
44775;DHT22;31340;51.402;0.016;2023-09-19T00:10:42;15.70;95.10
44775;DHT22;31340;51.402;0.016;2023-09-19T00:13:10;15.60;95.10
44775;DHT22;31340;51.402;0.016;2023-09-19T00:15:47;15.60;95.10
44775;DHT22;31340;51.402;0.016;2023-09-19T00:18:19;15.60;95.20
44775;DHT22;31340;51.402;0.016;2023-09-19T00:20:49;15.60;95.30
44775;DHT22;31340;51.402;0.016;2023-09-19T00:23:20;15.60;95.30
44775;DHT22;31340;51.402;0.016;2023-09-19T00:25:48;15.60;95.40
44775;DHT22;31340;51.402;0.016;2023-09-19T00:28:17;15.60;95.40
44775;DHT22;31340;51.402;0.016;2023-09-19T00:30:46;15.60;95.50
44775;DHT22;31340;51.402;0.016;2023-09-19T00:33:22;15.50;95.50
44775;DHT22;31340;51.402;0.016;2023-09-19T00:35:50;15.50;95.50
44775;DHT22;31340;51.402;0.016;2023-09-19T00:38:18;15.50;95.50
44775;DHT22;31340;51.402;0.016;2023-09-19T00:40:50;15.50;95.60
44775;DHT22;31340;51.402;0.016;2023-09-19T00:43:19;15.50;95.60
44775;DHT22;31340;51.402;0.016;2023-09-19T00:45:51;15.50;95.70
44775;DHT22;31340;51.402;0.016;2023-09-19T00:48:24;15.50;96.00
44775;DHT22;31340;51.402;0.016;2023-09-19T00:50:53;15.50;95.70
44775;DHT22;31340;51.402;0.016;2023-09-19T00:53:22;15.50;95.70
44775;DHT22;31340;51.402;0.016;2023-09-19T00:55:51;15.50;95.80
44775;DHT22;31340;51.402;0.016;2023-09-19T00:58:19;15.50;95.80
44775;DHT22;31340;51.402;0.016;2023-09-19T01:00:48;15.50;95.80
44775;DHT22;31340;51.402;0.016;2023-09-19T01:03:17;15.50;95.80
44775;DHT22;31340;51.402;0.016;2023-09-19T01:05:46;15.50;95.80
44775;DHT22;31340;51.402;0.016;2023-09-19T01:08:14;15.50;95.80
44775;DHT22;31340;51.402;0.016;2023-09-19T01:10:55;15.50;95.80
44775;DHT22;31340;51.402;0.016;2023-09-19T01:16:11;15.40;95.80
44775;DHT22;31340;51.402;0.016;2023-09-19T01:18:55;15.40;95.90
44775;DHT22;31340;51.402;0.016;2023-09-19T01:21:51;15.40;95.90
44775;DHT22;31340;51.402;0.016;2023-09-19T01:30:24;15.40;96.00
44775;DHT22;31340;51.402;0.016;2023-09-19T01:32:55;15.40;96.00
44775;DHT22;31340;51.402;0.016;2023-09-19T01:35:23;15.30;95.90
44775;DHT22;31340;51.402;0.016;2023-09-19T01:37:50;15.30;96.00
44775;DHT22;31340;51.402;0.016;2023-09-19T01:40:19;15.30;96.00
44775;DHT22;31340;51.402;0.016;2023-09-19T01:42:59;15.30;96.00
44775;DHT22;31340;51.402;0.016;2023-09-19T01:48:46;15.30;96.10
44775;DHT22;31340;51.402;0.016;2023-09-19T01:51:20;15.30;96.10
44775;DHT22;31340;51.402;0.016;2023-09-19T01:54:03;15.30;96.10
44775;DHT22;31340;51.402;0.016;2023-09-19T01:59:24;15.30;96.20
44775;DHT22;31340;51.402;0.016;2023-09-19T02:01:55;15.30;96.20
44775;DHT22;31340;51.402;0.016;2023-09-19T02:04:23;15.20;96.20
44775;DHT22;31340;51.402;0.016;2023-09-19T02:06:51;15.20;96.20
44775;DHT22;31340;51.402;0.016;2023-09-19T02:09:19;15.20;96.20
44775;DHT22;31340;51.402;0.016;2023-09-19T02:11:46;15.30;96.20
44775;DHT22;31340;51.402;0.016;2023-09-19T02:14:14;15.30;96.30
44775;DHT22;31340;51.402;0.016;2023-09-19T02:16:42;15.20;96.30
44775;DHT22;31340;51.402;0.016;2023-09-19T02:19:09;15.20;96.20
44775;DHT22;31340;51.402;0.016;2023-09-19T02:21:37;15.20;96.20
44775;DHT22;31340;51.402;0.016;2023-09-19T02:24:07;15.20;96.20
44775;DHT22;31340;51.402;0.016;2023-09-19T02:26:35;15.20;96.20
44775;DHT22;31340;51.402;0.016;2023-09-19T02:29:06;15.20;96.20
44775;DHT22;31340;51.402;0.016;2023-09-19T02:31:35;15.20;96.30
44775;DHT22;31340;51.402;0.016;2023-09-19T02:34:03;15.20;96.30
44775;DHT22;31340;51.402;0.016;2023-09-19T02:36:30;15.20;96.30
44775;DHT22;31340;51.402;0.016;2023-09-19T02:38:58;15.20;96.30
44775;DHT22;31340;51.402;0.016;2023-09-19T02:41:26;15.20;96.30
44775;DHT22;31340;51.402;0.016;2023-09-19T02:43:54;15.20;96.30
44775;DHT22;31340;51.402;0.016;2023-09-19T02:46:22;15.20;96.40
44775;DHT22;31340;51.402;0.016;2023-09-19T02:48:51;15.20;96.40
44775;DHT22;31340;51.402;0.016;2023-09-19T02:51:18;15.20;96.40
44775;DHT22;31340;51.402;0.016;2023-09-19T02:53:46;15.20;96.40
44775;DHT22;31340;51.402;0.016;2023-09-19T02:56:15;15.10;96.40
44775;DHT22;31340;51.402;0.016;2023-09-19T02:58:43;15.10;96.40
44775;DHT22;31340;51.402;0.016;2023-09-19T03:01:11;15.10;96.40
44775;DHT22;31340;51.402;0.016;2023-09-19T03:03:40;15.10;96.50
44775;DHT22;31340;51.402;0.016;2023-09-19T03:06:08;15.10;96.50
44775;DHT22;31340;51.402;0.016;2023-09-19T03:08:40;15.10;96.60
44775;DHT22;31340;51.402;0.016;2023-09-19T03:11:10;15.00;96.60
44775;DHT22;31340;51.402;0.016;2023-09-19T03:13:42;15.10;97.00
44775;DHT22;31340;51.402;0.016;2023-09-19T03:16:12;15.00;96.70
44775;DHT22;31340;51.402;0.016;2023-09-19T03:18:42;15.00;96.80
44775;DHT22;31340;51.402;0.016;2023-09-19T03:21:10;14.90;96.80
44775;DHT22;31340;51.402;0.016;2023-09-19T03:23:41;15.00;96.90
44775;DHT22;31340;51.402;0.016;2023-09-19T03:26:13;15.00;96.70
44775;DHT22;31340;51.402;0.016;2023-09-19T03:28:45;14.90;96.90
44775;DHT22;31340;51.402;0.016;2023-09-19T03:31:13;15.00;97.00
44775;DHT22;31340;51.402;0.016;2023-09-19T03:33:41;15.00;97.10
44775;DHT22;31340;51.402;0.016;2023-09-19T03:36:09;15.00;97.10
44775;DHT22;31340;51.402;0.016;2023-09-19T03:38:36;15.00;97.10
44775;DHT22;31340;51.402;0.016;2023-09-19T03:41:04;15.00;97.20
44775;DHT22;31340;51.402;0.016;2023-09-19T03:43:34;15.00;97.20
44775;DHT22;31340;51.402;0.016;2023-09-19T03:46:03;15.00;97.60
44775;DHT22;31340;51.402;0.016;2023-09-19T03:48:33;15.00;97.30
44775;DHT22;31340;51.402;0.016;2023-09-19T03:51:02;15.00;97.40
44775;DHT22;31340;51.402;0.016;2023-09-19T03:53:30;15.00;97.50
44775;DHT22;31340;51.402;0.016;2023-09-19T03:55:58;15.00;97.50
44775;DHT22;31340;51.402;0.016;2023-09-19T03:58:28;15.10;97.60
44775;DHT22;31340;51.402;0.016;2023-09-19T04:00:56;15.00;97.50
44775;DHT22;31340;51.402;0.016;2023-09-19T04:03:27;15.00;97.70
44775;DHT22;31340;51.402;0.016;2023-09-19T04:06:02;15.00;97.90
44775;DHT22;31340;51.402;0.016;2023-09-19T04:08:30;15.00;97.90
44775;DHT22;31340;51.402;0.016;2023-09-19T04:10:57;15.10;98.10
44775;DHT22;31340;51.402;0.016;2023-09-19T04:13:26;15.10;98.20
44775;DHT22;31340;51.402;0.016;2023-09-19T04:15:53;15.10;98.30
44775;DHT22;31340;51.402;0.016;2023-09-19T04:18:21;15.10;98.30
44775;DHT22;31340;51.402;0.016;2023-09-19T04:20:51;15.10;98.30
44775;DHT22;31340;51.402;0.016;2023-09-19T04:23:19;15.10;98.40
44775;DHT22;31340;51.402;0.016;2023-09-19T04:25:49;15.10;98.50
44775;DHT22;31340;51.402;0.016;2023-09-19T04:28:18;15.10;98.50
44775;DHT22;31340;51.402;0.016;2023-09-19T04:30:45;15.20;98.60
44775;DHT22;31340;51.402;0.016;2023-09-19T04:33:13;15.20;98.60
44775;DHT22;31340;51.402;0.016;2023-09-19T04:35:43;15.20;98.70
44775;DHT22;31340;51.402;0.016;2023-09-19T04:38:11;15.20;98.70
44775;DHT22;31340;51.402;0.016;2023-09-19T04:40:39;15.30;98.80
44775;DHT22;31340;51.402;0.016;2023-09-19T04:43:07;15.30;98.80
44775;DHT22;31340;51.402;0.016;2023-09-19T04:45:35;15.30;98.90
44775;DHT22;31340;51.402;0.016;2023-09-19T04:48:02;15.30;98.90
44775;DHT22;31340;51.402;0.016;2023-09-19T04:50:30;15.30;99.00
44775;DHT22;31340;51.402;0.016;2023-09-19T04:52:58;15.30;99.00
44775;DHT22;31340;51.402;0.016;2023-09-19T04:55:26;15.30;99.00
44775;DHT22;31340;51.402;0.016;2023-09-19T04:57:54;15.30;99.10
44775;DHT22;31340;51.402;0.016;2023-09-19T05:00:23;15.40;99.10
44775;DHT22;31340;51.402;0.016;2023-09-19T05:02:57;15.40;99.10
44775;DHT22;31340;51.402;0.016;2023-09-19T05:05:25;15.40;99.10
44775;DHT22;31340;51.402;0.016;2023-09-19T05:07:53;15.40;99.10
44775;DHT22;31340;51.402;0.016;2023-09-19T05:10:22;15.40;99.20
44775;DHT22;31340;51.402;0.016;2023-09-19T05:12:53;15.30;99.10
44775;DHT22;31340;51.402;0.016;2023-09-19T05:15:21;15.40;99.20
44775;DHT22;31340;51.402;0.016;2023-09-19T05:17:49;15.40;99.30
44775;DHT22;31340;51.402;0.016;2023-09-19T05:20:23;15.40;99.30
44775;DHT22;31340;51.402;0.016;2023-09-19T05:23:07;15.40;99.30
44775;DHT22;31340;51.402;0.016;2023-09-19T05:25:38;15.40;99.50
44775;DHT22;31340;51.402;0.016;2023-09-19T05:28:07;15.40;99.50
44775;DHT22;31340;51.402;0.016;2023-09-19T05:30:36;15.40;99.60
44775;DHT22;31340;51.402;0.016;2023-09-19T05:33:04;15.40;99.70
44775;DHT22;31340;51.402;0.016;2023-09-19T05:35:33;15.50;99.70
44775;DHT22;31340;51.402;0.016;2023-09-19T05:38:00;15.50;99.80
44775;DHT22;31340;51.402;0.016;2023-09-19T05:40:28;15.50;99.90
44775;DHT22;31340;51.402;0.016;2023-09-19T05:42:56;15.60;99.90
44775;DHT22;31340;51.402;0.016;2023-09-19T05:45:23;15.60;99.90
44775;DHT22;31340;51.402;0.016;2023-09-19T05:47:51;15.60;99.90
44775;DHT22;31340;51.402;0.016;2023-09-19T05:50:23;15.60;99.90
44775;DHT22;31340;51.402;0.016;2023-09-19T05:52:52;15.60;99.90
44775;DHT22;31340;51.402;0.016;2023-09-19T05:55:20;15.70;99.90
44775;DHT22;31340;51.402;0.016;2023-09-19T05:57:52;15.70;99.90
44775;DHT22;31340;51.402;0.016;2023-09-19T06:00:21;15.80;99.90
44775;DHT22;31340;51.402;0.016;2023-09-19T06:02:52;15.80;99.90
44775;DHT22;31340;51.402;0.016;2023-09-19T06:05:21;15.90;99.90
44775;DHT22;31340;51.402;0.016;2023-09-19T06:07:48;15.90;99.90
44775;DHT22;31340;51.402;0.016;2023-09-19T06:10:17;15.90;99.90
44775;DHT22;31340;51.402;0.016;2023-09-19T06:12:45;16.00;99.90
44775;DHT22;31340;51.402;0.016;2023-09-19T06:15:13;16.00;99.90
44775;DHT22;31340;51.402;0.016;2023-09-19T06:17:47;16.00;99.90
44775;DHT22;31340;51.402;0.016;2023-09-19T06:20:16;16.10;99.90
44775;DHT22;31340;51.402;0.016;2023-09-19T06:22:45;16.20;99.90
44775;DHT22;31340;51.402;0.016;2023-09-19T06:25:14;16.20;99.90
44775;DHT22;31340;51.402;0.016;2023-09-19T06:27:49;16.30;99.90
44775;DHT22;31340;51.402;0.016;2023-09-19T06:30:21;16.30;99.90
44775;DHT22;31340;51.402;0.016;2023-09-19T06:32:56;16.40;99.90
44775;DHT22;31340;51.402;0.016;2023-09-19T06:35:24;16.40;99.90
44775;DHT22;31340;51.402;0.016;2023-09-19T06:37:53;16.50;99.90
44775;DHT22;31340;51.402;0.016;2023-09-19T06:40:21;16.50;99.90
44775;DHT22;31340;51.402;0.016;2023-09-19T06:42:52;16.50;99.90
44775;DHT22;31340;51.402;0.016;2023-09-19T06:45:21;16.50;99.90
44775;DHT22;31340;51.402;0.016;2023-09-19T06:47:51;16.60;99.90
44775;DHT22;31340;51.402;0.016;2023-09-19T06:50:22;16.60;99.90
44775;DHT22;31340;51.402;0.016;2023-09-19T06:52:52;16.70;99.90
44775;DHT22;31340;51.402;0.016;2023-09-19T06:55:22;16.60;99.90
44775;DHT22;31340;51.402;0.016;2023-09-19T06:57:53;16.70;99.90
44775;DHT22;31340;51.402;0.016;2023-09-19T07:00:22;16.70;99.90
44775;DHT22;31340;51.402;0.016;2023-09-19T07:03:00;16.70;99.90
44775;DHT22;31340;51.402;0.016;2023-09-19T07:05:30;16.70;99.90
44775;DHT22;31340;51.402;0.016;2023-09-19T07:08:01;16.80;99.90
44775;DHT22;31340;51.402;0.016;2023-09-19T07:10:29;16.80;99.90
44775;DHT22;31340;51.402;0.016;2023-09-19T07:12:59;16.80;99.90
44775;DHT22;31340;51.402;0.016;2023-09-19T07:15:28;16.80;99.90
44775;DHT22;31340;51.402;0.016;2023-09-19T07:17:56;16.90;99.90
44775;DHT22;31340;51.402;0.016;2023-09-19T07:20:24;16.90;99.90
44775;DHT22;31340;51.402;0.016;2023-09-19T07:22:59;17.00;99.90
44775;DHT22;31340;51.402;0.016;2023-09-19T07:25:28;17.00;99.90
44775;DHT22;31340;51.402;0.016;2023-09-19T07:27:56;17.00;99.90
44775;DHT22;31340;51.402;0.016;2023-09-19T07:30:27;17.10;99.90
44775;DHT22;31340;51.402;0.016;2023-09-19T07:32:55;17.10;99.90
44775;DHT22;31340;51.402;0.016;2023-09-19T07:35:22;17.20;99.90
44775;DHT22;31340;51.402;0.016;2023-09-19T07:37:50;17.20;99.90
44775;DHT22;31340;51.402;0.016;2023-09-19T07:40:19;17.20;99.90
44775;DHT22;31340;51.402;0.016;2023-09-19T07:42:51;17.30;99.90
44775;DHT22;31340;51.402;0.016;2023-09-19T07:45:18;17.30;99.90
44775;DHT22;31340;51.402;0.016;2023-09-19T07:47:51;17.40;99.90
44775;DHT22;31340;51.402;0.016;2023-09-19T07:50:19;17.40;99.90
44775;DHT22;31340;51.402;0.016;2023-09-19T07:52:49;17.40;99.90
44775;DHT22;31340;51.402;0.016;2023-09-19T07:55:20;17.50;99.90
44775;DHT22;31340;51.402;0.016;2023-09-19T07:57:54;17.50;99.90
44775;DHT22;31340;51.402;0.016;2023-09-19T08:00:25;17.60;99.90
44775;DHT22;31340;51.402;0.016;2023-09-19T08:02:53;17.60;99.90
44775;DHT22;31340;51.402;0.016;2023-09-19T08:05:30;17.70;99.90
44775;DHT22;31340;51.402;0.016;2023-09-19T08:07:58;17.70;99.90
44775;DHT22;31340;51.402;0.016;2023-09-19T08:10:26;17.70;99.90
44775;DHT22;31340;51.402;0.016;2023-09-19T08:12:55;17.80;99.90
44775;DHT22;31340;51.402;0.016;2023-09-19T08:15:25;17.80;99.90
44775;DHT22;31340;51.402;0.016;2023-09-19T08:17:53;17.90;99.90
44775;DHT22;31340;51.402;0.016;2023-09-19T08:20:21;17.90;99.90
44775;DHT22;31340;51.402;0.016;2023-09-19T08:22:51;18.00;99.90
44775;DHT22;31340;51.402;0.016;2023-09-19T08:25:21;18.00;99.90
44775;DHT22;31340;51.402;0.016;2023-09-19T08:27:54;18.00;99.90
44775;DHT22;31340;51.402;0.016;2023-09-19T08:30:27;18.10;99.90
44775;DHT22;31340;51.402;0.016;2023-09-19T08:32:58;18.10;99.90
44775;DHT22;31340;51.402;0.016;2023-09-19T08:35:29;18.10;99.90
44775;DHT22;31340;51.402;0.016;2023-09-19T08:37:57;18.10;99.90
44775;DHT22;31340;51.402;0.016;2023-09-19T08:40:25;18.20;99.90
44775;DHT22;31340;51.402;0.016;2023-09-19T08:42:55;18.20;99.90
44775;DHT22;31340;51.402;0.016;2023-09-19T08:45:24;18.20;99.90
44775;DHT22;31340;51.402;0.016;2023-09-19T08:50:35;18.30;99.90
44775;DHT22;31340;51.402;0.016;2023-09-19T08:53:10;18.30;99.90
44775;DHT22;31340;51.402;0.016;2023-09-19T08:55:40;18.30;99.90
44775;DHT22;31340;51.402;0.016;2023-09-19T08:58:10;18.30;99.90
44775;DHT22;31340;51.402;0.016;2023-09-19T09:00:40;18.40;99.90
44775;DHT22;31340;51.402;0.016;2023-09-19T09:03:12;18.40;99.90
44775;DHT22;31340;51.402;0.016;2023-09-19T09:05:43;18.50;99.90
44775;DHT22;31340;51.402;0.016;2023-09-19T09:08:14;18.60;99.90
44775;DHT22;31340;51.402;0.016;2023-09-19T09:10:44;18.60;99.90
44775;DHT22;31340;51.402;0.016;2023-09-19T09:13:12;18.70;99.90
44775;DHT22;31340;51.402;0.016;2023-09-19T09:15:42;18.70;99.90
44775;DHT22;31340;51.402;0.016;2023-09-19T09:18:12;18.80;99.90
44775;DHT22;31340;51.402;0.016;2023-09-19T09:20:40;18.80;99.90
44775;DHT22;31340;51.402;0.016;2023-09-19T09:23:09;18.90;99.90
44775;DHT22;31340;51.402;0.016;2023-09-19T09:25:51;18.90;99.90
44775;DHT22;31340;51.402;0.016;2023-09-19T09:28:25;18.90;99.80
44775;DHT22;31340;51.402;0.016;2023-09-19T09:30:57;18.90;99.60
44775;DHT22;31340;51.402;0.016;2023-09-19T09:33:25;18.90;99.50
44775;DHT22;31340;51.402;0.016;2023-09-19T09:35:55;19.00;99.40
44775;DHT22;31340;51.402;0.016;2023-09-19T09:38:30;19.00;99.20
44775;DHT22;31340;51.402;0.016;2023-09-19T09:41:11;19.00;99.30
44775;DHT22;31340;51.402;0.016;2023-09-19T09:43:43;19.00;99.30
44775;DHT22;31340;51.402;0.016;2023-09-19T09:46:18;19.00;99.20
44775;DHT22;31340;51.402;0.016;2023-09-19T09:49:02;19.00;99.00
44775;DHT22;31340;51.402;0.016;2023-09-19T09:54:29;19.00;99.00
44775;DHT22;31340;51.402;0.016;2023-09-19T09:57:08;19.10;99.00
44775;DHT22;31340;51.402;0.016;2023-09-19T09:59:53;19.10;98.80
44775;DHT22;31340;51.402;0.016;2023-09-19T10:02:29;19.10;98.80
44775;DHT22;31340;51.402;0.016;2023-09-19T10:05:20;19.20;98.80
44775;DHT22;31340;51.402;0.016;2023-09-19T10:07:52;19.30;98.50
44775;DHT22;31340;51.402;0.016;2023-09-19T10:10:38;19.30;98.20
44775;DHT22;31340;51.402;0.016;2023-09-19T10:13:10;19.30;98.50
44775;DHT22;31340;51.402;0.016;2023-09-19T10:15:44;19.30;98.40
44775;DHT22;31340;51.402;0.016;2023-09-19T10:18:26;19.40;98.10
44775;DHT22;31340;51.402;0.016;2023-09-19T10:20:57;19.50;98.00
44775;DHT22;31340;51.402;0.016;2023-09-19T10:23:25;19.50;97.80
44775;DHT22;31340;51.402;0.016;2023-09-19T10:25:57;19.50;97.60
44775;DHT22;31340;51.402;0.016;2023-09-19T10:28:28;19.60;97.60
44775;DHT22;31340;51.402;0.016;2023-09-19T10:30:57;19.60;97.50
44775;DHT22;31340;51.402;0.016;2023-09-19T10:33:25;19.60;97.30
44775;DHT22;31340;51.402;0.016;2023-09-19T10:35:59;19.60;97.30
44775;DHT22;31340;51.402;0.016;2023-09-19T10:38:27;19.60;97.40
44775;DHT22;31340;51.402;0.016;2023-09-19T10:40:57;19.60;97.30
44775;DHT22;31340;51.402;0.016;2023-09-19T10:43:33;19.50;97.30
44775;DHT22;31340;51.402;0.016;2023-09-19T10:46:08;19.50;97.50
44775;DHT22;31340;51.402;0.016;2023-09-19T10:48:41;19.40;97.60
44775;DHT22;31340;51.402;0.016;2023-09-19T10:51:14;19.50;97.70
44775;DHT22;31340;51.402;0.016;2023-09-19T10:53:48;19.50;97.70
44775;DHT22;31340;51.402;0.016;2023-09-19T10:56:30;19.50;97.80
44775;DHT22;31340;51.402;0.016;2023-09-19T11:01:54;19.60;97.80
44775;DHT22;31340;51.402;0.016;2023-09-19T11:04:33;19.70;97.80
44775;DHT22;31340;51.402;0.016;2023-09-19T11:07:07;19.80;97.80
44775;DHT22;31340;51.402;0.016;2023-09-19T11:09:55;19.90;97.70
44775;DHT22;31340;51.402;0.016;2023-09-19T11:14:59;20.10;97.50
44775;DHT22;31340;51.402;0.016;2023-09-19T11:17:30;20.20;97.30
44775;DHT22;31340;51.402;0.016;2023-09-19T11:30:43;20.20;97.10
44775;DHT22;31340;51.402;0.016;2023-09-19T11:43:49;20.00;97.70
44775;DHT22;31340;51.402;0.016;2023-09-19T11:46:27;20.00;97.80
44775;DHT22;31340;51.402;0.016;2023-09-19T11:48:55;20.00;98.00
44775;DHT22;31340;51.402;0.016;2023-09-19T11:51:40;20.00;98.10
44775;DHT22;31340;51.402;0.016;2023-09-19T11:54:11;20.10;98.20
44775;DHT22;31340;51.402;0.016;2023-09-19T11:56:48;20.10;98.20
44775;DHT22;31340;51.402;0.016;2023-09-19T11:59:21;20.00;98.20
44775;DHT22;31340;51.402;0.016;2023-09-19T12:01:57;20.00;98.20
44775;DHT22;31340;51.402;0.016;2023-09-19T12:04:36;20.10;98.30
44775;DHT22;31340;51.402;0.016;2023-09-19T12:07:07;20.10;98.30
44775;DHT22;31340;51.402;0.016;2023-09-19T12:09:39;20.10;98.30
44775;DHT22;31340;51.402;0.016;2023-09-19T12:12:25;20.10;98.30
44775;DHT22;31340;51.402;0.016;2023-09-19T12:14:55;20.10;98.40
44775;DHT22;31340;51.402;0.016;2023-09-19T12:17:37;20.00;98.60
44775;DHT22;31340;51.402;0.016;2023-09-19T12:20:06;20.00;98.70
44775;DHT22;31340;51.402;0.016;2023-09-19T12:22:45;20.00;98.80
44775;DHT22;31340;51.402;0.016;2023-09-19T12:25:14;20.00;98.90
44775;DHT22;31340;51.402;0.016;2023-09-19T12:27:45;19.90;99.00
44775;DHT22;31340;51.402;0.016;2023-09-19T12:30:16;19.90;99.20
44775;DHT22;31340;51.402;0.016;2023-09-19T12:32:54;19.80;99.30
44775;DHT22;31340;51.402;0.016;2023-09-19T12:35:33;19.90;99.50
44775;DHT22;31340;51.402;0.016;2023-09-19T12:38:03;19.80;99.60
44775;DHT22;31340;51.402;0.016;2023-09-19T12:40:32;19.80;99.70
44775;DHT22;31340;51.402;0.016;2023-09-19T12:43:01;19.80;99.90
44775;DHT22;31340;51.402;0.016;2023-09-19T12:45:33;19.80;99.90
44775;DHT22;31340;51.402;0.016;2023-09-19T12:48:23;19.80;99.90
44775;DHT22;31340;51.402;0.016;2023-09-19T12:51:11;19.80;99.90
44775;DHT22;31340;51.402;0.016;2023-09-19T12:53:44;19.80;99.90
44775;DHT22;31340;51.402;0.016;2023-09-19T12:56:16;19.80;99.90
44775;DHT22;31340;51.402;0.016;2023-09-19T12:58:52;19.80;99.90
44775;DHT22;31340;51.402;0.016;2023-09-19T13:01:23;19.80;99.90
44775;DHT22;31340;51.402;0.016;2023-09-19T13:04:18;19.70;99.90
44775;DHT22;31340;51.402;0.016;2023-09-19T13:06:49;19.80;99.90
44775;DHT22;31340;51.402;0.016;2023-09-19T13:09:19;19.70;99.90
44775;DHT22;31340;51.402;0.016;2023-09-19T13:11:48;19.70;99.90
44775;DHT22;31340;51.402;0.016;2023-09-19T13:14:22;19.70;99.90
44775;DHT22;31340;51.402;0.016;2023-09-19T13:19:50;19.70;99.90
44775;DHT22;31340;51.402;0.016;2023-09-19T13:22:45;19.70;99.90
44775;DHT22;31340;51.402;0.016;2023-09-19T13:25:20;19.70;99.90
44775;DHT22;31340;51.402;0.016;2023-09-19T13:27:54;19.70;99.90
44775;DHT22;31340;51.402;0.016;2023-09-19T13:30:26;19.70;99.90
44775;DHT22;31340;51.402;0.016;2023-09-19T13:33:09;19.70;99.90
44775;DHT22;31340;51.402;0.016;2023-09-19T13:35:38;19.60;99.90
44775;DHT22;31340;51.402;0.016;2023-09-19T13:38:08;19.60;99.90
44775;DHT22;31340;51.402;0.016;2023-09-19T13:40:40;19.60;99.90
44775;DHT22;31340;51.402;0.016;2023-09-19T13:43:09;19.60;99.90
44775;DHT22;31340;51.402;0.016;2023-09-19T13:45:38;19.50;99.90
44775;DHT22;31340;51.402;0.016;2023-09-19T13:48:09;19.50;99.90
44775;DHT22;31340;51.402;0.016;2023-09-19T13:50:39;19.50;99.90
44775;DHT22;31340;51.402;0.016;2023-09-19T13:53:09;19.40;99.90
44775;DHT22;31340;51.402;0.016;2023-09-19T13:55:37;19.40;99.90
44775;DHT22;31340;51.402;0.016;2023-09-19T13:58:05;19.40;99.90
44775;DHT22;31340;51.402;0.016;2023-09-19T14:00:34;19.40;99.90
44775;DHT22;31340;51.402;0.016;2023-09-19T14:03:01;19.40;99.90
44775;DHT22;31340;51.402;0.016;2023-09-19T14:05:30;19.40;99.90
44775;DHT22;31340;51.402;0.016;2023-09-19T14:07:58;19.40;99.90
44775;DHT22;31340;51.402;0.016;2023-09-19T14:10:30;19.40;99.90
44775;DHT22;31340;51.402;0.016;2023-09-19T14:12:58;19.40;99.90
44775;DHT22;31340;51.402;0.016;2023-09-19T14:15:27;19.40;99.90
44775;DHT22;31340;51.402;0.016;2023-09-19T14:17:58;19.50;99.90
44775;DHT22;31340;51.402;0.016;2023-09-19T14:20:27;19.40;99.90
44775;DHT22;31340;51.402;0.016;2023-09-19T14:22:55;19.40;99.90
44775;DHT22;31340;51.402;0.016;2023-09-19T14:25:22;19.40;99.90
44775;DHT22;31340;51.402;0.016;2023-09-19T14:27:50;19.50;99.90
44775;DHT22;31340;51.402;0.016;2023-09-19T14:30:20;19.50;99.90
44775;DHT22;31340;51.402;0.016;2023-09-19T14:32:48;19.50;99.90
44775;DHT22;31340;51.402;0.016;2023-09-19T14:35:17;19.50;99.90
44775;DHT22;31340;51.402;0.016;2023-09-19T14:37:45;19.60;99.90
44775;DHT22;31340;51.402;0.016;2023-09-19T14:40:13;19.60;99.90
44775;DHT22;31340;51.402;0.016;2023-09-19T14:42:43;19.60;99.90
44775;DHT22;31340;51.402;0.016;2023-09-19T14:45:13;19.50;99.90
44775;DHT22;31340;51.402;0.016;2023-09-19T14:47:45;19.60;99.90
44775;DHT22;31340;51.402;0.016;2023-09-19T14:50:13;19.50;99.90
44775;DHT22;31340;51.402;0.016;2023-09-19T14:52:41;19.50;99.90
44775;DHT22;31340;51.402;0.016;2023-09-19T14:55:08;19.50;99.90
44775;DHT22;31340;51.402;0.016;2023-09-19T14:57:38;19.50;99.90
44775;DHT22;31340;51.402;0.016;2023-09-19T15:00:08;19.50;99.90
44775;DHT22;31340;51.402;0.016;2023-09-19T15:02:39;19.50;99.90
44775;DHT22;31340;51.402;0.016;2023-09-19T15:05:13;19.50;99.90
44775;DHT22;31340;51.402;0.016;2023-09-19T15:07:46;19.50;99.90
44775;DHT22;31340;51.402;0.016;2023-09-19T15:10:14;19.40;99.90
44775;DHT22;31340;51.402;0.016;2023-09-19T15:12:42;19.50;99.90
44775;DHT22;31340;51.402;0.016;2023-09-19T15:15:10;19.50;99.90
44775;DHT22;31340;51.402;0.016;2023-09-19T15:17:37;19.50;99.90
44775;DHT22;31340;51.402;0.016;2023-09-19T15:20:06;19.50;99.90
44775;DHT22;31340;51.402;0.016;2023-09-19T15:22:34;19.50;99.90
44775;DHT22;31340;51.402;0.016;2023-09-19T15:25:02;19.40;99.90
44775;DHT22;31340;51.402;0.016;2023-09-19T15:27:32;19.40;99.90
44775;DHT22;31340;51.402;0.016;2023-09-19T15:30:00;19.50;99.90
44775;DHT22;31340;51.402;0.016;2023-09-19T15:32:30;19.50;99.90
44775;DHT22;31340;51.402;0.016;2023-09-19T15:34:58;19.50;99.90
44775;DHT22;31340;51.402;0.016;2023-09-19T15:37:25;19.40;99.90
44775;DHT22;31340;51.402;0.016;2023-09-19T15:39:53;19.50;99.90
44775;DHT22;31340;51.402;0.016;2023-09-19T15:42:21;19.50;99.90
44775;DHT22;31340;51.402;0.016;2023-09-19T15:44:49;19.50;99.90
44775;DHT22;31340;51.402;0.016;2023-09-19T15:47:18;19.50;99.90
44775;DHT22;31340;51.402;0.016;2023-09-19T15:49:47;19.50;99.90
44775;DHT22;31340;51.402;0.016;2023-09-19T15:52:17;19.50;99.90
44775;DHT22;31340;51.402;0.016;2023-09-19T15:54:45;19.50;99.90
44775;DHT22;31340;51.402;0.016;2023-09-19T15:57:13;19.50;99.90
44775;DHT22;31340;51.402;0.016;2023-09-19T15:59:41;19.50;99.90
44775;DHT22;31340;51.402;0.016;2023-09-19T16:02:09;19.60;99.90
44775;DHT22;31340;51.402;0.016;2023-09-19T16:04:36;19.50;99.90
44775;DHT22;31340;51.402;0.016;2023-09-19T16:07:05;19.60;99.90
44775;DHT22;31340;51.402;0.016;2023-09-19T16:09:34;19.50;99.90
44775;DHT22;31340;51.402;0.016;2023-09-19T16:12:03;19.50;99.90
44775;DHT22;31340;51.402;0.016;2023-09-19T16:14:30;19.50;99.90
44775;DHT22;31340;51.402;0.016;2023-09-19T16:16:58;19.50;99.90
44775;DHT22;31340;51.402;0.016;2023-09-19T16:19:27;19.50;99.90
44775;DHT22;31340;51.402;0.016;2023-09-19T16:21:54;19.50;99.90
44775;DHT22;31340;51.402;0.016;2023-09-19T16:24:23;19.40;99.90
44775;DHT22;31340;51.402;0.016;2023-09-19T16:26:51;19.50;99.90
44775;DHT22;31340;51.402;0.016;2023-09-19T16:29:20;19.40;99.90
44775;DHT22;31340;51.402;0.016;2023-09-19T16:31:51;19.50;99.90
44775;DHT22;31340;51.402;0.016;2023-09-19T16:34:19;19.40;99.90
44775;DHT22;31340;51.402;0.016;2023-09-19T16:36:47;19.50;99.90
44775;DHT22;31340;51.402;0.016;2023-09-19T16:39:15;19.50;99.90
44775;DHT22;31340;51.402;0.016;2023-09-19T16:41:42;19.50;99.90